Xekmatt — OR2473 — position and weather

sailwx.info

Track history (hours):
 
Tides and Currents Weather Stations Pressure Air Temp Water Temp Dewpoint Dewpoint Depression Visibility Wind Speed Wind Dir Waves Ship Positions

Xekmatt

Last reported at 2016-Apr-25 14:18 UTC. Time now 2016-Apr-30 07:09 UTC.
Position N 38°42' W 009°10'.

Length 14 m.

Type: Sailing vessel. MMSI: 205247310.

Date/timePositionNaut miles runAvg speedWind from/ knotsBaromVisibWave heightAir tempDewpointWater temp
2016-Apr-25 14:18N 38°42' W 009°10'5 6.8
2016-Apr-25 13:32N 38°41' W 009°16'6 6.4
2016-Apr-25 12:32N 38°35' W 009°18'7 7.4
2016-Apr-25 11:33N 38°28' W 009°16'4 4.4
2016-Apr-25 10:34N 38°24' W 009°14'6 3.7
2016-Apr-25 09:03N 38°26' W 009°07'0 0.6
2016-Apr-25 08:16N 38°26' W 009°07'5 0.1
2016-Apr-23 13:33N 38°25' W 009°14'7 6.7
2016-Apr-23 12:30N 38°31' W 009°19'6 6.4
2016-Apr-23 11:31N 38°37' W 009°21'4 4.6
2016-Apr-23 10:33N 38°41' W 009°22'5 5.2
2016-Apr-23 09:34N 38°41' W 009°16'  
Track history (hours):
 
Tides and Currents Weather Stations Pressure Air Temp Water Temp Dewpoint Dewpoint Depression Visibility Wind Speed Wind Dir Waves Ship Positions

Xekmatt

Last reported at 2016-Apr-25 14:18 UTC. Time now 2016-Apr-30 07:09 UTC.
Position N 38°42' W 009°10'.

Length 14 m.

Type: Sailing vessel. MMSI: 205247310.

Date/timePositionNaut miles runAvg speedWind from/ knotsBaromVisibWave heightAir tempDewpointWater temp
2016-Apr-25 14:18N 38°42' W 009°10'5 6.8
2016-Apr-25 13:32N 38°41' W 009°16'6 6.4
2016-Apr-25 12:32N 38°35' W 009°18'7 7.4
2016-Apr-25 11:33N 38°28' W 009°16'4 4.4
2016-Apr-25 10:34N 38°24' W 009°14'6 3.7
2016-Apr-25 09:03N 38°26' W 009°07'0 0.6
2016-Apr-25 08:16N 38°26' W 009°07'5 0.1
2016-Apr-23 13:33N 38°25' W 009°14'7 6.7
2016-Apr-23 12:30N 38°31' W 009°19'6 6.4
2016-Apr-23 11:31N 38°37' W 009°21'4 4.6
2016-Apr-23 10:33N 38°41' W 009°22'5 5.2
2016-Apr-23 09:34N 38°41' W 009°16'  

Dump ship's entire track history